sensor_id;sensor_type;location;lat;lon;timestamp;pressure;altitude;pressure_sealevel;temperature;humidity
78170;BME280;67412;49.892;14.490;2024-02-28T00:00:54;97033.00;;;3.97;100.00
78170;BME280;67412;49.892;14.490;2024-02-28T00:03:19;97037.25;;;3.99;100.00
78170;BME280;67412;49.892;14.490;2024-02-28T00:05:45;97028.81;;;4.00;100.00
78170;BME280;67412;49.892;14.490;2024-02-28T00:08:11;97030.50;;;4.00;100.00
78170;BME280;67412;49.892;14.490;2024-02-28T00:10:36;97026.22;;;3.93;100.00
78170;BME280;67412;49.892;14.490;2024-02-28T00:13:01;97021.13;;;3.93;100.00
78170;BME280;67412;49.892;14.490;2024-02-28T00:15:27;97029.56;;;3.92;100.00
78170;BME280;67412;49.892;14.490;2024-02-28T00:17:52;97021.97;;;3.93;100.00
78170;BME280;67412;49.892;14.490;2024-02-28T00:20:18;97030.47;;;3.94;100.00
78170;BME280;67412;49.892;14.490;2024-02-28T00:22:44;97027.06;;;3.96;100.00
78170;BME280;67412;49.892;14.490;2024-02-28T00:25:09;97022.84;;;3.97;100.00
78170;BME280;67412;49.892;14.490;2024-02-28T00:27:36;97020.31;;;3.97;100.00
78170;BME280;67412;49.892;14.490;2024-02-28T00:30:03;97024.53;;;3.96;100.00
78170;BME280;67412;49.892;14.490;2024-02-28T00:32:31;97020.28;;;3.94;100.00
78170;BME280;67412;49.892;14.490;2024-02-28T00:34:57;97018.59;;;3.99;100.00
78170;BME280;67412;49.892;14.490;2024-02-28T00:37:22;97016.88;;;3.95;100.00
78170;BME280;67412;49.892;14.490;2024-02-28T00:39:50;97021.13;;;3.96;100.00
78170;BME280;67412;49.892;14.490;2024-02-28T00:42:16;97017.75;;;3.95;100.00
78170;BME280;67412;49.892;14.490;2024-02-28T00:44:41;97017.78;;;4.00;100.00
78170;BME280;67412;49.892;14.490;2024-02-28T00:47:10;97017.78;;;4.03;100.00
78170;BME280;67412;49.892;14.490;2024-02-28T00:49:36;97019.44;;;3.96;100.00
78170;BME280;67412;49.892;14.490;2024-02-28T00:52:02;97017.78;;;3.97;100.00
78170;BME280;67412;49.892;14.490;2024-02-28T00:54:27;97020.31;;;3.98;100.00
78170;BME280;67412;49.892;14.490;2024-02-28T00:56:53;97026.25;;;4.02;100.00
78170;BME280;67412;49.892;14.490;2024-02-28T00:59:18;97029.66;;;4.01;100.00
78170;BME280;67412;49.892;14.490;2024-02-28T01:01:43;97026.28;;;4.05;100.00
78170;BME280;67412;49.892;14.490;2024-02-28T01:04:09;97038.97;;;4.03;100.00
78170;BME280;67412;49.892;14.490;2024-02-28T01:06:34;97035.59;;;4.03;100.00
78170;BME280;67412;49.892;14.490;2024-02-28T01:09:00;97043.13;;;3.92;100.00
78170;BME280;67412;49.892;14.490;2024-02-28T01:11:25;97044.84;;;3.95;100.00
78170;BME280;67412;49.892;14.490;2024-02-28T01:13:51;97051.66;;;3.99;100.00
78170;BME280;67412;49.892;14.490;2024-02-28T01:16:16;97054.19;;;3.96;100.00
78170;BME280;67412;49.892;14.490;2024-02-28T01:18:42;97052.44;;;3.88;100.00
78170;BME280;67412;49.892;14.490;2024-02-28T01:21:07;97051.59;;;3.91;100.00
78170;BME280;67412;49.892;14.490;2024-02-28T01:23:32;97055.03;;;3.98;100.00
78170;BME280;67412;49.892;14.490;2024-02-28T01:25:58;97057.56;;;3.96;100.00
78170;BME280;67412;49.892;14.490;2024-02-28T01:28:23;97060.94;;;3.95;100.00
78170;BME280;67412;49.892;14.490;2024-02-28T01:30:48;97060.94;;;3.92;100.00
78170;BME280;67412;49.892;14.490;2024-02-28T01:33:14;97058.41;;;3.97;100.00
78170;BME280;67412;49.892;14.490;2024-02-28T01:35:39;97055.00;;;3.95;100.00
78170;BME280;67412;49.892;14.490;2024-02-28T01:38:05;97049.94;;;3.98;100.00
78170;BME280;67412;49.892;14.490;2024-02-28T01:40:30;97050.81;;;3.97;100.00
78170;BME280;67412;49.892;14.490;2024-02-28T01:43:11;97055.91;;;4.00;100.00
78170;BME280;67412;49.892;14.490;2024-02-28T01:45:36;97052.50;;;3.99;100.00
78170;BME280;67412;49.892;14.490;2024-02-28T01:48:02;97056.72;;;3.96;100.00
78170;BME280;67412;49.892;14.490;2024-02-28T01:50:28;97053.34;;;3.98;100.00
78170;BME280;67412;49.892;14.490;2024-02-28T01:52:53;97050.84;;;4.04;100.00
78170;BME280;67412;49.892;14.490;2024-02-28T01:55:19;97053.38;;;4.06;100.00
78170;BME280;67412;49.892;14.490;2024-02-28T01:57:44;97053.41;;;4.07;100.00
78170;BME280;67412;49.892;14.490;2024-02-28T02:00:10;97054.25;;;4.09;100.00
78170;BME280;67412;49.892;14.490;2024-02-28T02:02:36;97053.38;;;4.06;100.00
78170;BME280;67412;49.892;14.490;2024-02-28T02:05:02;97053.38;;;4.06;100.00
78170;BME280;67412;49.892;14.490;2024-02-28T02:07:27;97054.25;;;4.06;100.00
78170;BME280;67412;49.892;14.490;2024-02-28T02:09:54;97055.94;;;4.06;100.00
78170;BME280;67412;49.892;14.490;2024-02-28T02:12:19;97054.22;;;4.03;100.00
78170;BME280;67412;49.892;14.490;2024-02-28T02:14:48;97066.91;;;4.00;100.00
78170;BME280;67412;49.892;14.490;2024-02-28T02:17:13;97058.44;;;4.01;100.00
78170;BME280;67412;49.892;14.490;2024-02-28T02:19:39;97057.59;;;4.01;100.00
78170;BME280;67412;49.892;14.490;2024-02-28T02:22:05;97055.91;;;4.00;100.00
78170;BME280;67412;49.892;14.490;2024-02-28T02:24:32;97057.59;;;4.01;100.00
78170;BME280;67412;49.892;14.490;2024-02-28T02:26:58;97061.00;;;4.03;100.00
78170;BME280;67412;49.892;14.490;2024-02-28T02:29:23;97051.66;;;4.02;100.00
78170;BME280;67412;49.892;14.490;2024-02-28T02:31:49;97063.56;;;4.04;100.00
78170;BME280;67412;49.892;14.490;2024-02-28T02:34:14;97055.84;;;3.95;100.00
78170;BME280;67412;49.892;14.490;2024-02-28T02:36:39;97064.34;;;3.99;100.00
78170;BME280;67412;49.892;14.490;2024-02-28T02:39:05;97065.16;;;3.95;100.00
78170;BME280;67412;49.892;14.490;2024-02-28T02:41:31;97064.34;;;3.99;100.00
78170;BME280;67412;49.892;14.490;2024-02-28T02:43:56;97065.19;;;3.98;100.00
78170;BME280;67412;49.892;14.490;2024-02-28T02:46:23;97061.78;;;3.93;100.00
78170;BME280;67412;49.892;14.490;2024-02-28T02:48:48;97062.59;;;3.88;100.00
78170;BME280;67412;49.892;14.490;2024-02-28T02:51:13;97075.31;;;3.92;100.00
78170;BME280;67412;49.892;14.490;2024-02-28T02:53:39;97075.31;;;3.92;100.00
78170;BME280;67412;49.892;14.490;2024-02-28T02:56:04;97079.56;;;3.94;100.00
78170;BME280;67412;49.892;14.490;2024-02-28T02:58:30;97087.22;;;3.99;100.00
78170;BME280;67412;49.892;14.490;2024-02-28T03:00:55;97084.72;;;4.00;100.00
78170;BME280;67412;49.892;14.490;2024-02-28T03:03:20;97085.50;;;3.98;100.00
78170;BME280;67412;49.892;14.490;2024-02-28T03:05:46;97091.47;;;3.97;100.00
78170;BME280;67412;49.892;14.490;2024-02-28T03:08:11;97093.19;;;4.02;100.00
78170;BME280;67412;49.892;14.490;2024-02-28T03:10:36;97103.31;;;3.96;100.00
78170;BME280;67412;49.892;14.490;2024-02-28T03:13:02;97098.22;;;3.98;100.00
78170;BME280;67412;49.892;14.490;2024-02-28T03:15:27;97105.03;;;4.00;100.00
78170;BME280;67412;49.892;14.490;2024-02-28T03:17:52;97095.69;;;3.96;100.00
78170;BME280;67412;49.892;14.490;2024-02-28T03:20:18;97102.47;;;3.99;100.00
78170;BME280;67412;49.892;14.490;2024-02-28T03:22:43;97104.16;;;3.97;100.00
78170;BME280;67412;49.892;14.490;2024-02-28T03:25:09;97114.31;;;3.97;100.00
78170;BME280;67412;49.892;14.490;2024-02-28T03:27:34;97112.59;;;3.93;100.00
78170;BME280;67412;49.892;14.490;2024-02-28T03:30:00;97122.78;;;3.96;100.00
78170;BME280;67412;49.892;14.490;2024-02-28T03:32:25;97122.78;;;3.96;100.00
78170;BME280;67412;49.892;14.490;2024-02-28T03:34:50;97124.50;;;4.00;100.00
78170;BME280;67412;49.892;14.490;2024-02-28T03:37:16;97122.00;;;4.03;100.00
78170;BME280;67412;49.892;14.490;2024-02-28T03:39:41;97119.41;;;3.98;100.00
78170;BME280;67412;49.892;14.490;2024-02-28T03:42:06;97116.06;;;4.01;100.00
78170;BME280;67412;49.892;14.490;2024-02-28T03:44:32;97121.94;;;3.98;100.00
78170;BME280;67412;49.892;14.490;2024-02-28T03:46:57;97118.56;;;3.98;100.00
78170;BME280;67412;49.892;14.490;2024-02-28T03:49:22;97127.06;;;4.00;100.00
78170;BME280;67412;49.892;14.490;2024-02-28T03:51:48;97127.94;;;4.03;100.00
78170;BME280;67412;49.892;14.490;2024-02-28T03:54:13;97127.03;;;4.01;100.00
78170;BME280;67412;49.892;14.490;2024-02-28T03:56:38;97129.56;;;3.98;100.00
78170;BME280;67412;49.892;14.490;2024-02-28T03:59:04;97124.50;;;4.01;100.00
78170;BME280;67412;49.892;14.490;2024-02-28T04:01:30;97122.81;;;3.99;100.00
78170;BME280;67412;49.892;14.490;2024-02-28T04:03:55;97122.84;;;4.03;100.00
78170;BME280;67412;49.892;14.490;2024-02-28T04:06:20;97124.50;;;3.98;100.00
78170;BME280;67412;49.892;14.490;2024-02-28T04:08:46;97126.19;;;3.96;100.00
78170;BME280;67412;49.892;14.490;2024-02-28T04:11:11;97131.28;;;3.99;100.00
78170;BME280;67412;49.892;14.490;2024-02-28T04:13:36;97133.78;;;3.98;100.00
78170;BME280;67412;49.892;14.490;2024-02-28T04:16:02;97132.94;;;3.96;100.00
78170;BME280;67412;49.892;14.490;2024-02-28T04:18:31;97133.81;;;3.96;100.00
78170;BME280;67412;49.892;14.490;2024-02-28T04:20:56;97139.72;;;3.98;100.00
78170;BME280;67412;49.892;14.490;2024-02-28T04:23:21;97140.56;;;3.96;100.00
78170;BME280;67412;49.892;14.490;2024-02-28T04:25:47;97142.22;;;3.89;100.00
78170;BME280;67412;49.892;14.490;2024-02-28T04:28:12;97148.94;;;3.87;100.00
78170;BME280;67412;49.892;14.490;2024-02-28T04:30:37;97148.16;;;3.89;100.00
78170;BME280;67412;49.892;14.490;2024-02-28T04:33:03;97156.66;;;3.95;100.00
78170;BME280;67412;49.892;14.490;2024-02-28T04:35:28;97160.88;;;3.94;100.00
78170;BME280;67412;49.892;14.490;2024-02-28T04:37:54;97160.06;;;3.94;100.00
78170;BME280;67412;49.892;14.490;2024-02-28T04:40:19;97161.72;;;3.95;100.00
78170;BME280;67412;49.892;14.490;2024-02-28T04:42:44;97165.09;;;3.89;100.00
78170;BME280;67412;49.892;14.490;2024-02-28T04:45:10;97168.44;;;3.85;100.00
78170;BME280;67412;49.892;14.490;2024-02-28T04:47:36;97165.06;;;3.90;100.00
78170;BME280;67412;49.892;14.490;2024-02-28T04:50:02;97167.59;;;3.87;100.00
78170;BME280;67412;49.892;14.490;2024-02-28T04:52:30;97170.97;;;3.86;100.00
78170;BME280;67412;49.892;14.490;2024-02-28T04:54:55;97177.75;;;3.86;100.00
78170;BME280;67412;49.892;14.490;2024-02-28T04:57:21;97173.47;;;3.80;100.00
78170;BME280;67412;49.892;14.490;2024-02-28T04:59:47;97182.78;;;3.83;100.00
78170;BME280;67412;49.892;14.490;2024-02-28T05:02:12;97175.16;;;3.78;100.00
78170;BME280;67412;49.892;14.490;2024-02-28T05:04:37;97187.00;;;3.82;100.00
78170;BME280;67412;49.892;14.490;2024-02-28T05:07:03;97183.59;;;3.77;100.00
78170;BME280;67412;49.892;14.490;2024-02-28T05:09:29;97181.88;;;3.76;100.00
78170;BME280;67412;49.892;14.490;2024-02-28T05:11:54;97185.34;;;3.81;100.00
78170;BME280;67412;49.892;14.490;2024-02-28T05:14:19;97181.09;;;3.82;100.00
78170;BME280;67412;49.892;14.490;2024-02-28T05:16:46;97183.59;;;3.79;100.00
78170;BME280;67412;49.892;14.490;2024-02-28T05:19:12;97196.34;;;3.82;100.00
78170;BME280;67412;49.892;14.490;2024-02-28T05:21:41;97199.66;;;3.76;100.00
78170;BME280;67412;49.892;14.490;2024-02-28T05:24:07;97192.06;;;3.79;100.00
78170;BME280;67412;49.892;14.490;2024-02-28T05:26:34;97203.16;;;3.86;100.00
78170;BME280;67412;49.892;14.490;2024-02-28T05:29:00;97210.75;;;3.84;100.00
78170;BME280;67412;49.892;14.490;2024-02-28T05:31:26;97214.09;;;3.79;100.00
78170;BME280;67412;49.892;14.490;2024-02-28T05:33:52;97204.81;;;3.81;100.00
78170;BME280;67412;49.892;14.490;2024-02-28T05:36:19;97209.06;;;3.83;100.00
78170;BME280;67412;49.892;14.490;2024-02-28T05:38:45;97212.44;;;3.84;100.00
78170;BME280;67412;49.892;14.490;2024-02-28T05:41:10;97217.56;;;3.85;100.00
78170;BME280;67412;49.892;14.490;2024-02-28T05:43:38;97222.66;;;3.85;100.00
78170;BME280;67412;49.892;14.490;2024-02-28T05:46:04;97223.53;;;3.89;100.00
78170;BME280;67412;49.892;14.490;2024-02-28T05:48:29;97226.91;;;3.91;100.00
78170;BME280;67412;49.892;14.490;2024-02-28T05:50:54;97224.38;;;3.89;100.00
78170;BME280;67412;49.892;14.490;2024-02-28T05:53:19;97229.47;;;3.94;100.00
78170;BME280;67412;49.892;14.490;2024-02-28T05:55:45;97234.56;;;3.94;100.00
78170;BME280;67412;49.892;14.490;2024-02-28T05:58:10;97230.34;;;3.93;100.00
78170;BME280;67412;49.892;14.490;2024-02-28T06:00:36;97243.91;;;3.95;100.00
78170;BME280;67412;49.892;14.490;2024-02-28T06:03:01;97253.22;;;3.93;100.00
78170;BME280;67412;49.892;14.490;2024-02-28T06:05:26;97251.44;;;3.87;100.00
78170;BME280;67412;49.892;14.490;2024-02-28T06:07:52;97254.81;;;3.86;100.00
78170;BME280;67412;49.892;14.490;2024-02-28T06:10:17;97263.31;;;3.88;100.00
78170;BME280;67412;49.892;14.490;2024-02-28T06:12:42;97259.94;;;3.88;100.00
78170;BME280;67412;49.892;14.490;2024-02-28T06:15:08;97264.16;;;3.87;100.00
78170;BME280;67412;49.892;14.490;2024-02-28T06:17:33;97264.19;;;3.89;100.00
78170;BME280;67412;49.892;14.490;2024-02-28T06:19:58;97257.34;;;3.86;100.00
78170;BME280;67412;49.892;14.490;2024-02-28T06:22:24;97253.13;;;3.85;100.00
78170;BME280;67412;49.892;14.490;2024-02-28T06:24:49;97259.03;;;3.84;100.00
78170;BME280;67412;49.892;14.490;2024-02-28T06:27:15;97247.16;;;3.83;100.00
78170;BME280;67412;49.892;14.490;2024-02-28T06:29:40;97255.63;;;3.81;100.00
78170;BME280;67412;49.892;14.490;2024-02-28T06:32:06;97256.50;;;3.84;100.00
78170;BME280;67412;49.892;14.490;2024-02-28T06:34:31;97256.47;;;3.81;100.00
78170;BME280;67412;49.892;14.490;2024-02-28T06:36:57;97265.00;;;3.88;100.00
78170;BME280;67412;49.892;14.490;2024-02-28T06:39:22;97261.59;;;3.87;100.00
78170;BME280;67412;49.892;14.490;2024-02-28T06:41:48;97269.31;;;3.94;100.00
78170;BME280;67412;49.892;14.490;2024-02-28T06:44:18;97266.81;;;3.97;100.00
78170;BME280;67412;49.892;14.490;2024-02-28T06:46:43;97272.78;;;4.00;100.00
78170;BME280;67412;49.892;14.490;2024-02-28T06:49:08;97279.50;;;3.98;100.00
78170;BME280;67412;49.892;14.490;2024-02-28T06:51:34;97286.28;;;3.98;100.00
78170;BME280;67412;49.892;14.490;2024-02-28T06:53:59;97295.59;;;3.96;100.00
78170;BME280;67412;49.892;14.490;2024-02-28T06:56:24;97293.09;;;4.00;100.00
78170;BME280;67412;49.892;14.490;2024-02-28T06:58:50;97294.03;;;4.08;100.00
78170;BME280;67412;49.892;14.490;2024-02-28T07:01:15;97304.13;;;4.01;100.00
78170;BME280;67412;49.892;14.490;2024-02-28T07:03:40;97300.72;;;4.00;100.00
78170;BME280;67412;49.892;14.490;2024-02-28T07:06:06;97300.78;;;4.05;100.00
78170;BME280;67412;49.892;14.490;2024-02-28T07:08:32;97302.47;;;4.06;100.00
78170;BME280;67412;49.892;14.490;2024-02-28T07:10:57;97307.53;;;4.06;100.00
78170;BME280;67412;49.892;14.490;2024-02-28T07:13:24;97310.16;;;4.10;100.00
78170;BME280;67412;49.892;14.490;2024-02-28T07:15:49;97297.34;;;4.03;100.00
78170;BME280;67412;49.892;14.490;2024-02-28T07:18:14;97308.38;;;4.03;100.00
78170;BME280;67412;49.892;14.490;2024-02-28T07:20:40;97309.28;;;4.08;100.00
78170;BME280;67412;49.892;14.490;2024-02-28T07:23:05;97311.81;;;4.10;100.00
78170;BME280;67412;49.892;14.490;2024-02-28T07:25:31;97318.69;;;4.15;100.00
78170;BME280;67412;49.892;14.490;2024-02-28T07:27:58;97314.50;;;4.22;100.00
78170;BME280;67412;49.892;14.490;2024-02-28T07:30:24;97317.91;;;4.24;100.00
78170;BME280;67412;49.892;14.490;2024-02-28T07:32:50;97320.50;;;4.28;100.00
78170;BME280;67412;49.892;14.490;2024-02-28T07:35:15;97319.72;;;4.34;100.00
78170;BME280;67412;49.892;14.490;2024-02-28T07:37:41;97326.56;;;4.38;100.00
78170;BME280;67412;49.892;14.490;2024-02-28T07:40:06;97328.22;;;4.39;100.00
78170;BME280;67412;49.892;14.490;2024-02-28T07:42:33;97330.84;;;4.42;100.00
78170;BME280;67412;49.892;14.490;2024-02-28T07:45:00;97338.34;;;4.33;100.00
78170;BME280;67412;49.892;14.490;2024-02-28T07:47:25;97343.53;;;4.42;100.00
78170;BME280;67412;49.892;14.490;2024-02-28T07:49:51;97346.88;;;4.36;100.00
78170;BME280;67412;49.892;14.490;2024-02-28T07:52:17;97351.91;;;4.30;100.00
78170;BME280;67412;49.892;14.490;2024-02-28T07:54:42;97362.94;;;4.34;100.00
78170;BME280;67412;49.892;14.490;2024-02-28T07:57:11;97360.47;;;4.40;100.00
78170;BME280;67412;49.892;14.490;2024-02-28T07:59:41;97359.59;;;4.39;100.00
78170;BME280;67412;49.892;14.490;2024-02-28T08:02:07;97360.47;;;4.38;100.00
78170;BME280;67412;49.892;14.490;2024-02-28T08:04:32;97362.16;;;4.39;100.00
78170;BME280;67412;49.892;14.490;2024-02-28T08:06:59;97359.66;;;4.44;100.00
78170;BME280;67412;49.892;14.490;2024-02-28T08:09:24;97363.09;;;4.51;100.00
78170;BME280;67412;49.892;14.490;2024-02-28T08:11:50;97369.09;;;4.54;100.00
78170;BME280;67412;49.892;14.490;2024-02-28T08:14:15;97354.69;;;4.58;100.00
78170;BME280;67412;49.892;14.490;2024-02-28T08:16:40;97362.38;;;4.62;100.00
78170;BME280;67412;49.892;14.490;2024-02-28T08:19:06;97363.28;;;4.67;100.00
78170;BME280;67412;49.892;14.490;2024-02-28T08:21:31;97359.06;;;4.71;100.00
78170;BME280;67412;49.892;14.490;2024-02-28T08:23:56;97366.72;;;4.74;100.00
78170;BME280;67412;49.892;14.490;2024-02-28T08:26:23;97363.44;;;4.85;100.00
78170;BME280;67412;49.892;14.490;2024-02-28T08:28:48;97358.47;;;4.99;100.00
78170;BME280;67412;49.892;14.490;2024-02-28T08:31:14;97365.31;;;5.06;100.00
78170;BME280;67412;49.892;14.490;2024-02-28T08:33:41;97366.22;;;5.11;100.00
78170;BME280;67412;49.892;14.490;2024-02-28T08:36:06;97371.44;;;5.28;100.00
78170;BME280;67412;49.892;14.490;2024-02-28T08:38:31;97378.13;;;5.18;100.00
78170;BME280;67412;49.892;14.490;2024-02-28T08:40:57;97381.66;;;5.34;100.00
78170;BME280;67412;49.892;14.490;2024-02-28T08:43:22;97380.78;;;5.27;100.00
78170;BME280;67412;49.892;14.490;2024-02-28T08:45:47;97379.91;;;5.24;100.00
78170;BME280;67412;49.892;14.490;2024-02-28T08:48:15;97382.31;;;5.09;100.00
78170;BME280;67412;49.892;14.490;2024-02-28T08:50:40;97380.56;;;5.03;100.00
78170;BME280;67412;49.892;14.490;2024-02-28T08:53:06;97386.44;;;4.96;100.00
78170;BME280;67412;49.892;14.490;2024-02-28T08:55:32;97393.31;;;5.02;100.00
78170;BME280;67412;49.892;14.490;2024-02-28T08:57:57;97389.03;;;5.01;100.00
78170;BME280;67412;49.892;14.490;2024-02-28T09:00:22;97393.25;;;4.99;100.00
78170;BME280;67412;49.892;14.490;2024-02-28T09:02:48;97389.88;;;5.03;100.00
78170;BME280;67412;49.892;14.490;2024-02-28T09:05:13;97389.97;;;5.09;100.00
78170;BME280;67412;49.892;14.490;2024-02-28T09:07:38;97394.22;;;5.14;100.00
78170;BME280;67412;49.892;14.490;2024-02-28T09:10:04;97391.72;;;5.16;100.00
78170;BME280;67412;49.892;14.490;2024-02-28T09:12:32;97394.22;;;5.11;100.00
78170;BME280;67412;49.892;14.490;2024-02-28T09:14:58;97399.25;;;5.05;100.00
78170;BME280;67412;49.892;14.490;2024-02-28T09:17:24;97395.06;;;5.09;100.00
78170;BME280;67412;49.892;14.490;2024-02-28T09:19:49;97406.09;;;5.09;100.00
78170;BME280;67412;49.892;14.490;2024-02-28T09:22:15;97394.25;;;5.16;100.00
78170;BME280;67412;49.892;14.490;2024-02-28T09:24:42;97395.09;;;5.15;100.00
78170;BME280;67412;49.892;14.490;2024-02-28T09:27:07;97401.00;;;5.11;100.00
78170;BME280;67412;49.892;14.490;2024-02-28T09:29:32;97391.69;;;5.14;100.00
78170;BME280;67412;49.892;14.490;2024-02-28T09:31:58;97398.56;;;5.23;100.00
78170;BME280;67412;49.892;14.490;2024-02-28T09:34:23;97398.59;;;5.29;100.00
78170;BME280;67412;49.892;14.490;2024-02-28T09:36:48;97407.13;;;5.31;100.00
78170;BME280;67412;49.892;14.490;2024-02-28T09:39:14;97410.44;;;5.22;100.00
78170;BME280;67412;49.892;14.490;2024-02-28T09:41:43;97401.94;;;5.22;100.00
78170;BME280;67412;49.892;14.490;2024-02-28T09:44:08;97412.19;;;5.28;100.00
78170;BME280;67412;49.892;14.490;2024-02-28T09:46:34;97416.53;;;5.40;100.00
78170;BME280;67412;49.892;14.490;2024-02-28T09:49:07;97420.78;;;5.45;100.00
78170;BME280;67412;49.892;14.490;2024-02-28T09:51:36;97424.97;;;5.37;100.00
78170;BME280;67412;49.892;14.490;2024-02-28T09:54:02;97420.75;;;5.36;100.00
78170;BME280;67412;49.892;14.490;2024-02-28T09:56:31;97422.41;;;5.34;100.00
78170;BME280;67412;49.892;14.490;2024-02-28T09:58:57;97426.78;;;5.52;100.00
78170;BME280;67412;49.892;14.490;2024-02-28T10:01:23;97426.75;;;5.46;100.00
78170;BME280;67412;49.892;14.490;2024-02-28T10:03:51;97434.34;;;5.41;100.00
78170;BME280;67412;49.892;14.490;2024-02-28T10:06:20;97431.00;;;5.45;100.00
78170;BME280;67412;49.892;14.490;2024-02-28T10:08:46;97430.16;;;5.48;100.00
78170;BME280;67412;49.892;14.490;2024-02-28T10:11:19;97436.16;;;5.56;100.00
78170;BME280;67412;49.892;14.490;2024-02-28T10:13:46;97436.13;;;5.51;100.00
78170;BME280;67412;49.892;14.490;2024-02-28T10:16:12;97436.91;;;5.41;100.00
78170;BME280;67412;49.892;14.490;2024-02-28T10:18:37;97441.19;;;5.45;100.00
78170;BME280;67412;49.892;14.490;2024-02-28T10:21:03;97454.91;;;5.62;100.00
78170;BME280;67412;49.892;14.490;2024-02-28T10:23:29;97454.06;;;5.62;100.00
78170;BME280;67412;49.892;14.490;2024-02-28T10:25:54;97454.88;;;5.58;100.00
78170;BME280;67412;49.892;14.490;2024-02-28T10:28:21;97459.16;;;5.65;100.00
78170;BME280;67412;49.892;14.490;2024-02-28T10:30:46;97457.53;;;5.76;100.00
78170;BME280;67412;49.892;14.490;2024-02-28T10:33:12;97461.81;;;5.78;100.00
78170;BME280;67412;49.892;14.490;2024-02-28T10:35:42;97469.41;;;5.72;100.00
78170;BME280;67412;49.892;14.490;2024-02-28T10:38:10;97472.00;;;5.77;100.00
78170;BME280;67412;49.892;14.490;2024-02-28T10:40:35;97471.94;;;5.71;100.00
78170;BME280;67412;49.892;14.490;2024-02-28T10:43:02;97475.38;;;5.73;100.00
78170;BME280;67412;49.892;14.490;2024-02-28T10:45:30;97482.13;;;5.68;100.00
78170;BME280;67412;49.892;14.490;2024-02-28T10:47:56;97480.44;;;5.68;100.00
78170;BME280;67412;49.892;14.490;2024-02-28T10:50:22;97477.94;;;5.76;100.00
78170;BME280;67412;49.892;14.490;2024-02-28T10:52:48;97476.22;;;5.72;100.00
78170;BME280;67412;49.892;14.490;2024-02-28T10:55:20;97475.38;;;5.77;100.00
78170;BME280;67412;49.892;14.490;2024-02-28T10:57:53;97477.22;;;5.88;100.00
78170;BME280;67412;49.892;14.490;2024-02-28T11:00:22;97471.38;;;6.11;100.00
78170;BME280;67412;49.892;14.490;2024-02-28T11:02:48;97468.88;;;6.17;100.00
78170;BME280;67412;49.892;14.490;2024-02-28T11:05:14;97480.72;;;6.08;100.00
78170;BME280;67412;49.892;14.490;2024-02-28T11:07:41;97480.53;;;5.83;100.00
78170;BME280;67412;49.892;14.490;2024-02-28T11:10:08;97485.63;;;5.83;100.00
78170;BME280;67412;49.892;14.490;2024-02-28T11:12:35;97493.28;;;5.85;100.00
78170;BME280;67412;49.892;14.490;2024-02-28T11:15:03;97494.94;;;5.78;100.00
78170;BME280;67412;49.892;14.490;2024-02-28T11:17:32;97494.94;;;5.78;100.00
78170;BME280;67412;49.892;14.490;2024-02-28T11:19:58;97498.38;;;5.83;100.00
78170;BME280;67412;49.892;14.490;2024-02-28T11:22:27;97492.50;;;5.88;100.00
78170;BME280;67412;49.892;14.490;2024-02-28T11:24:53;97489.13;;;5.93;100.00
78170;BME280;67412;49.892;14.490;2024-02-28T11:27:19;97489.09;;;5.89;100.00
78170;BME280;67412;49.892;14.490;2024-02-28T11:29:45;97495.97;;;5.96;100.00
78170;BME280;67412;49.892;14.490;2024-02-28T11:32:14;97497.63;;;5.97;100.00
78170;BME280;67412;49.892;14.490;2024-02-28T11:34:41;97497.53;;;5.83;100.00
78170;BME280;67412;49.892;14.490;2024-02-28T11:37:08;97500.97;;;5.87;100.00
78170;BME280;67412;49.892;14.490;2024-02-28T11:39:34;97495.91;;;5.90;100.00
78170;BME280;67412;49.892;14.490;2024-02-28T11:42:17;97499.31;;;5.90;100.00
78170;BME280;67412;49.892;14.490;2024-02-28T11:44:43;97496.84;;;5.99;100.00
78170;BME280;67412;49.892;14.490;2024-02-28T11:47:09;97506.97;;;5.96;100.00
78170;BME280;67412;49.892;14.490;2024-02-28T11:49:37;97507.81;;;5.94;100.00
78170;BME280;67412;49.892;14.490;2024-02-28T11:52:04;97513.81;;;6.00;100.00
78170;BME280;67412;49.892;14.490;2024-02-28T11:54:30;97510.28;;;5.83;100.00
78170;BME280;67412;49.892;14.490;2024-02-28T11:56:55;97514.47;;;5.76;100.00
78170;BME280;67412;49.892;14.490;2024-02-28T11:59:21;97521.25;;;5.74;100.00
78170;BME280;67412;49.892;14.490;2024-02-28T12:01:46;97516.22;;;5.83;100.00
78170;BME280;67412;49.892;14.490;2024-02-28T12:04:15;97523.84;;;5.79;100.00
78170;BME280;67412;49.892;14.490;2024-02-28T12:06:41;97529.78;;;5.76;100.00
78170;BME280;67412;49.892;14.490;2024-02-28T12:09:08;97528.91;;;5.76;100.00
78170;BME280;67412;49.892;14.490;2024-02-28T12:11:35;97527.25;;;5.81;100.00
78170;BME280;67412;49.892;14.490;2024-02-28T12:14:03;97530.56;;;5.71;100.00
78170;BME280;67412;49.892;14.490;2024-02-28T12:16:29;97532.28;;;5.75;100.00
78170;BME280;67412;49.892;14.490;2024-02-28T12:18:55;97531.47;;;5.77;100.00
78170;BME280;67412;49.892;14.490;2024-02-28T12:21:20;97527.22;;;5.78;100.00
78170;BME280;67412;49.892;14.490;2024-02-28T12:23:46;97530.66;;;5.80;100.00
78170;BME280;67412;49.892;14.490;2024-02-28T12:26:14;97527.19;;;5.72;100.00
78170;BME280;67412;49.892;14.490;2024-02-28T12:28:39;97528.91;;;5.77;100.00
78170;BME280;67412;49.892;14.490;2024-02-28T12:31:05;97523.84;;;5.79;100.00
78170;BME280;67412;49.892;14.490;2024-02-28T12:33:33;97518.84;;;5.88;100.00
78170;BME280;67412;49.892;14.490;2024-02-28T12:35:59;97526.50;;;5.90;100.00
78170;BME280;67412;49.892;14.490;2024-02-28T12:38:28;97529.06;;;5.91;100.00
78170;BME280;67412;49.892;14.490;2024-02-28T12:40:54;97530.75;;;5.88;100.00
78170;BME280;67412;49.892;14.490;2024-02-28T12:43:19;97527.38;;;5.93;100.00